Aérodrome :
LOGIN :

S'inscrire | Disclaimer

   EN    FR    IT 

 










Légende :    VFR   VFR Marginal   IFR   IFR Intensif   IFR Très Intensif
Visi : 
Plafond : 
>= 8 km
>= 3000ft
5 à 8 km
1000 à 3000 ft
1500m à 5 km
500 à 1000 ft
800 à 1500m
200 à 500 ft
< 800m
< 200 ft
Symboles :   Orages  Brouillard  Fortes neiges  Fortes précipitations  Vent > 20 kt
SIGMETs :   Divers  Orages  Givrage  Turbulence  Onde Orograph.  Cendres Volcan.







- Altitude de l'aérodrome : 1234 ft
- Code IATA : LUX


ELLX - Luxembourg Findel

DERNIER METAR :
  • 281720Z 26014KT 9999 FEW050TCU 17/06 Q1023 NOSIG

METARs EXPIRÉS :
  • 281650Z 24011KT 9999 FEW050TCU 18/06 Q1023 NOSIG
  • 281620Z 27009KT 230V300 9999 FEW050TCU 18/06 Q1022 NOSIG
  • 281550Z 26010KT CAVOK 18/05 Q1022 NOSIG
  • 281520Z 26013KT CAVOK 19/05 Q1022 NOSIG
  • 281450Z 23010KT CAVOK 18/05 Q1022 NOSIG

TAF TAF ELLX
Valide du 28 à 18h jusqu'au 30 à 00h UTC


281700Z 2818/2924 23007KT 9999 FEW045
BECMG 2900/2903 3500 BR
PROB30
TEMPO 2903/2908 0300 FG BKN003
BECMG 2908/2911 27010KT
ATIS : +352 4798 27300
Météo : +352 4798 27010 / 27050
Pas de NOTAMs connus pour ce terrain.



MET'MAP, la Météo Aéronautique d'un coup d'oeil ! - Copyright ORBIFLY Décembre 2007 - Disclaimer

ORBIFLY MET'MAP TEAM :

Programmation & Développement : Alexandra Zaïnal
Conception & Développement : Baudouin d'Aumeries
Co-Programmation & Développement : Marc-Olivier Méhu
Soutien technique & logistique : Manuel Goepfert

Contact : metmap@orbifly.com




SOURCES & CREDITS :

   NOAA